FYGA4: White River At Fayetteville, AR

                                SHEF ID:       FYGA4     White River near Fayetteville, A
STATION TYPE: Stream Gauge

PRECIP STAGE RIV-FLOW WTR-TEMP DIS-OXY PH CONDUCT BAT-LOAD
in ft cfs F mg/l su umho/cm volt
Ccp-Rev Ccp-Rev Ccp-Rev Ccp-Rev Ccp-Rev Ccp-Rev Ccp-Rev Ccp-Rev
(America/Chicago)
06/03 00:00 0.00 2.16 112 77.68 6.19 7.49 134 12.81
06/03 01:00 0.00 2.15 110 77.34 6.20 7.49 134 12.73
06/03 02:00 0.00 2.14 108 77.02 6.20 7.48 135 12.73
06/03 03:00 0.00 2.14 108 76.75 6.21 7.48 136 12.73
06/03 04:00 0.00 2.13 106 76.50 6.26 7.49 137 12.65
06/03 05:00 0.00 2.13 106 76.21 6.27 7.46 138 12.65
06/03 06:00 0.00 2.13 106 75.96 6.29 7.47 138 12.65
06/03 07:00 0.00 2.13 106 75.76 6.31 7.49 139 12.57
06/03 08:00 0.00 2.13 106 75.78 6.40 7.48 139 12.73
06/03 09:00 0.00 2.13 106 75.99 6.49 7.50 139 13.29
06/03 10:00 0.00 2.12 104 76.32 6.66 7.52 140 13.13
06/03 11:00 0.00 2.13 106 76.73 6.89 7.56 140 13.29
06/03 12:00 0.00 2.12 104 77.05 7.05 7.59 139 13.21
06/03 13:00 0.00 2.11 102 76.93 6.88 7.58 140 13.05
06/03 14:00 0.00 2.11 102 76.71 6.72 7.57 141 12.97
06/03 15:00 0.01 2.09 98 76.39 6.59 7.55 141 12.89
06/03 16:00 0.05 2.12 104 75.94 6.54 7.54 141 12.81
06/03 17:00 0.01 2.26 134 75.92 6.67 7.55 135 12.81
06/03 18:00 0.01 2.15 110 75.85 6.71 7.53 132 13.13
06/03 19:00 0.01 2.14 108 75.60 6.66 7.54 137 13.05
06/03 20:00 0.00 2.13 106 75.40 6.60 7.53 140 12.97
06/03 21:00 0.00 2.12 104 75.16 6.52 7.53 141 12.81
06/03 22:00 0.00 2.12 104 74.91 6.46 7.51 143 12.73
06/03 23:00 0.00 2.13 106 74.73 6.46 7.51 144 12.73
Data processed at Tue 04Jun2024 04:10 GMT

Parsing this webpage?

Checkout our new Data API! CWMSDataAPI (CDA)

Timeseries IDs (TSIDs)

TSIDs used from left to right in the data table
FAYE.Precip-Inc.Total.1Hour.1Hour.Ccp-Rev
FAYE.Stage.Inst.1Hour.0.Ccp-Rev
FAYE.Flow.Inst.1Hour.0.Ccp-Rev
FAYE.Temp-Water.Inst.1Hour.0.Ccp-Rev
FAYE.Conc-DO.Inst.1Hour.0.Ccp-Rev
FAYE.pH.Inst.1Hour.0.Ccp-Rev
FAYE.Cond-Water.Inst.1Hour.0.Ccp-Rev
FAYE.Volt-Battery Load.Inst.1Hour.0.Ccp-Rev

                            

All information presented herein is the property of the government of the United States of America and may be revised or deleted at any time without prior notice. Dissemination of this information without the expressed written consent of the Public Affairs Office, Tulsa District U.S. Army Corps of Engineers is strictly prohibited. These data are gathered electronically and, as presented, have NOT undergone any form of quality control. These data are NOT guaranteed to be valid or correct.